Time;durP1;ratioP1;P1;durP2;ratioP2;P2;SDS_P1;SDS_P2;PMS_P1;PMS_P2;Temp;Humidity;BMP_temperature;BMP_pressure;BME280_temperature;BME280_humidity;BME280_pressure;Samples;Min_cycle;Max_cycle;Signal;HPM_P1;HPM_P2
2022/03/01 00:00:59;;;;;;;13.88;9.40;;;2.00;92.70;;;;;;5092449;28;20226;-45
2022/03/01 00:03:26;;;;;;;15.27;9.38;;;1.90;92.60;;;;;;5092391;28;20205;-44
2022/03/01 00:05:53;;;;;;;15.35;9.45;;;2.20;92.90;;;;;;5092167;28;20213;-44
2022/03/01 00:08:19;;;;;;;16.27;9.85;;;2.20;92.90;;;;;;5092103;28;20198;-43
2022/03/01 00:10:47;;;;;;;12.80;8.80;;;1.80;92.70;;;;;;5092345;28;20225;-43
2022/03/01 00:13:14;;;;;;;11.73;8.35;;;1.80;92.80;;;;;;5092798;28;20199;-44
2022/03/01 00:15:40;;;;;;;12.65;9.55;;;2.20;92.90;;;;;;5093231;28;20293;-47
2022/03/01 00:18:07;;;;;;;16.52;9.15;;;2.00;92.90;;;;;;5092981;28;20198;-46
2022/03/01 00:20:34;;;;;;;11.65;8.40;;;2.10;93.00;;;;;;5091010;28;20626;-44
2022/03/01 00:23:00;;;;;;;12.90;8.70;;;2.00;92.80;;;;;;5093426;28;20224;-45
2022/03/01 00:25:27;;;;;;;16.98;10.10;;;2.00;92.80;;;;;;5095876;28;20554;-45
2022/03/01 00:27:55;;;;;;;12.23;9.00;;;2.00;92.80;;;;;;5096112;28;20623;-44
2022/03/01 00:30:22;;;;;;;10.52;8.48;;;1.90;92.80;;;;;;5096855;28;20297;-46
2022/03/01 00:32:48;;;;;;;12.63;8.25;;;2.00;92.80;;;;;;5097450;28;20199;-44
2022/03/01 00:35:15;;;;;;;14.45;8.55;;;1.70;92.70;;;;;;5097796;28;20195;-44
2022/03/01 00:37:42;;;;;;;13.02;8.68;;;1.90;92.80;;;;;;5097274;28;20194;-44
2022/03/01 00:40:09;;;;;;;13.00;9.05;;;2.10;92.90;;;;;;5096518;28;20678;-44
2022/03/01 00:42:36;;;;;;;13.90;9.38;;;2.00;92.80;;;;;;5111454;28;20209;-45
2022/03/01 00:45:05;;;;;;;12.52;8.82;;;1.80;92.70;;;;;;5097023;28;20647;-44
2022/03/01 00:47:32;;;;;;;13.00;10.02;;;1.70;92.80;;;;;;5096150;28;20191;-47
2022/03/01 00:49:58;;;;;;;14.00;9.38;;;1.70;92.80;;;;;;5094455;28;20211;-46
2022/03/01 00:52:25;;;;;;;16.45;9.20;;;1.90;92.80;;;;;;5093992;28;20243;-45
2022/03/01 00:54:52;;;;;;;15.32;9.68;;;1.70;92.80;;;;;;5092882;28;20225;-44
2022/03/01 00:57:19;;;;;;;13.18;9.10;;;2.00;92.90;;;;;;5093738;28;20682;-44
2022/03/01 00:59:45;;;;;;;13.60;9.15;;;1.80;92.90;;;;;;5091528;28;20238;-44
2022/03/01 01:02:13;;;;;;;13.57;8.00;;;1.60;92.90;;;;;;5092293;28;20198;-43
2022/03/01 01:04:40;;;;;;;10.77;8.07;;;1.80;93.00;;;;;;5093166;28;20190;-44
2022/03/01 01:07:07;;;;;;;10.02;8.68;;;1.90;93.10;;;;;;5095219;28;20202;-44
2022/03/01 01:09:33;;;;;;;10.85;8.73;;;1.50;92.80;;;;;;5092092;28;20655;-44
2022/03/01 01:12:00;;;;;;;18.48;9.63;;;1.70;93.00;;;;;;5092680;28;20199;-44
2022/03/01 01:14:26;;;;;;;13.73;8.25;;;1.90;93.10;;;;;;5092069;28;20199;-44
2022/03/01 01:16:53;;;;;;;12.60;8.27;;;;;;;;;;5093623;28;20202;-44
2022/03/01 01:19:21;;;;;;;16.63;9.32;;;1.60;93.00;;;;;;5096082;28;20222;-44
2022/03/01 01:24:32;;;;;;;12.68;8.13;;;2.00;93.20;;;;;;5096443;28;20194;-44
2022/03/01 01:26:59;;;;;;;13.95;8.55;;;1.70;93.10;;;;;;5096090;28;20199;-44
2022/03/01 01:29:25;;;;;;;14.13;9.85;;;1.50;93.10;;;;;;5094397;28;20198;-46
2022/03/01 01:31:52;;;;;;;11.30;9.32;;;1.70;93.20;;;;;;5096020;28;20199;-46
2022/03/01 01:34:18;;;;;;;12.20;8.57;;;1.90;93.30;;;;;;5095706;28;20571;-44
2022/03/01 01:36:46;;;;;;;13.15;8.27;;;1.50;93.30;;;;;;5095624;28;20282;-44
2022/03/01 01:39:13;;;;;;;12.43;8.75;;;;;;;;;;5094893;28;20718;-44
2022/03/01 01:41:40;;;;;;;15.43;9.38;;;1.60;93.30;;;;;;5094840;28;20223;-44
2022/03/01 01:44:08;;;;;;;11.70;8.55;;;1.50;93.20;;;;;;5094976;28;20225;-44
2022/03/01 01:46:35;;;;;;;12.30;8.38;;;1.70;93.50;;;;;;5094955;28;20277;-44
2022/03/01 01:49:01;;;;;;;14.80;9.73;;;1.50;93.40;;;;;;5093257;28;20663;-44
2022/03/01 01:51:28;;;;;;;16.92;9.48;;;1.50;93.50;;;;;;5094703;28;20272;-44
2022/03/01 01:53:56;;;;;;;12.38;8.70;;;1.50;93.50;;;;;;5095071;28;20198;-44
2022/03/01 01:56:23;;;;;;;16.00;10.00;;;1.60;93.70;;;;;;5094953;28;20187;-44
2022/03/01 01:58:50;;;;;;;13.18;8.85;;;1.60;93.60;;;;;;5094370;28;20199;-44
2022/03/01 02:01:16;;;;;;;16.52;10.38;;;1.40;93.70;;;;;;5094776;28;20229;-44
2022/03/01 02:03:43;;;;;;;17.15;11.32;;;1.30;93.60;;;;;;5095037;28;20206;-44
2022/03/01 02:06:10;;;;;;;12.35;8.88;;;;;;;;;;5094881;28;20566;-44
2022/03/01 02:08:37;;;;;;;19.45;9.68;;;1.50;93.60;;;;;;5094403;28;20248;-44
2022/03/01 02:11:05;;;;;;;14.40;9.05;;;1.40;93.70;;;;;;5095188;28;20227;-44
2022/03/01 02:13:31;;;;;;;9.98;8.65;;;1.40;93.70;;;;;;5094520;28;20199;-44
2022/03/01 02:15:59;;;;;;;16.98;9.75;;;1.50;93.80;;;;;;5094652;28;20203;-43
2022/03/01 02:18:25;;;;;;;16.98;10.30;;;1.50;93.90;;;;;;5094265;28;20202;-43
2022/03/01 02:20:53;;;;;;;14.35;9.93;;;1.40;93.90;;;;;;5094474;28;20226;-44
2022/03/01 02:23:20;;;;;;;18.95;9.40;;;1.30;93.80;;;;;;5094305;28;20203;-44
2022/03/01 02:25:47;;;;;;;12.10;9.07;;;1.40;93.90;;;;;;5094286;28;20205;-44
2022/03/01 02:28:14;;;;;;;13.82;9.68;;;1.30;93.90;;;;;;5092989;28;20217;-44
2022/03/01 02:30:41;;;;;;;14.05;8.93;;;;;;;;;;5091930;28;20279;-44
2022/03/01 02:33:07;;;;;;;17.92;10.15;;;1.30;94.00;;;;;;5094362;28;20194;-44
2022/03/01 02:35:34;;;;;;;13.32;9.18;;;1.40;94.00;;;;;;5094564;28;20191;-44
2022/03/01 02:38:03;;;;;;;11.43;8.88;;;1.10;94.00;;;;;;5098464;28;20669;-44
2022/03/01 02:40:30;;;;;;;13.73;9.90;;;1.30;94.10;;;;;;5097386;28;20268;-44
2022/03/01 02:42:57;;;;;;;14.95;9.65;;;1.30;94.10;;;;;;5098025;28;20682;-44
2022/03/01 02:45:24;;;;;;;12.48;9.35;;;1.20;94.00;;;;;;5096967;28;20190;-44
2022/03/01 02:47:51;;;;;;;15.50;8.75;;;1.50;94.20;;;;;;5097496;28;20565;-44
2022/03/01 02:50:18;;;;;;;14.85;8.98;;;1.20;94.30;;;;;;5096093;28;20713;-43
2022/03/01 02:52:45;;;;;;;17.27;9.80;;;1.10;94.30;;;;;;5094530;28;20197;-45
2022/03/01 02:55:13;;;;;;;12.00;9.25;;;1.40;94.40;;;;;;5095550;28;20193;-46
2022/03/01 02:57:41;;;;;;;15.82;9.45;;;1.00;94.20;;;;;;5096035;28;20194;-43
2022/03/01 03:00:09;;;;;;;12.80;8.73;;;;;;;;;;5094498;28;20222;-44
2022/03/01 03:02:35;;;;;;;14.95;9.23;;;1.30;94.50;;;;;;5095228;28;20293;-44
2022/03/01 03:05:02;;;;;;;14.68;9.27;;;;;;;;;;5096002;28;20244;-44
2022/03/01 03:07:29;;;;;;;15.27;9.73;;;1.30;94.60;;;;;;5095181;28;20199;-44
2022/03/01 03:09:55;;;;;;;15.15;9.30;;;0.80;94.40;;;;;;5093218;28;20718;-43
2022/03/01 03:12:23;;;;;;;16.45;9.48;;;1.10;94.70;;;;;;5095012;28;20198;-44
2022/03/01 03:14:50;;;;;;;13.43;9.70;;;0.90;94.50;;;;;;5095210;28;20570;-44
2022/03/01 03:17:16;;;;;;;14.70;9.18;;;1.20;94.70;;;;;;5094953;28;20651;-44
2022/03/01 03:19:43;;;;;;;11.48;8.65;;;1.10;94.60;;;;;;5093831;28;20237;-43
2022/03/01 03:22:10;;;;;;;12.55;9.93;;;1.30;94.80;;;;;;5093640;28;20720;-45
2022/03/01 03:24:37;;;;;;;12.65;9.05;;;;;;;;;;5093446;28;20539;-45
2022/03/01 03:27:04;;;;;;;11.73;9.27;;;1.10;94.80;;;;;;5093374;28;20202;-44
2022/03/01 03:29:32;;;;;;;14.50;9.70;;;1.50;95.10;;;;;;5092685;28;20228;-45
2022/03/01 03:31:58;;;;;;;17.92;10.30;;;1.30;94.90;;;;;;5093017;28;20209;-45
2022/03/01 03:34:26;;;;;;;15.85;9.63;;;1.10;94.80;;;;;;5093178;28;20206;-44
2022/03/01 03:36:53;;;;;;;16.70;11.45;;;1.00;94.80;;;;;;5093146;28;20197;-45
2022/03/01 03:39:20;;;;;;;24.10;10.40;;;1.10;94.90;;;;;;5093182;28;20599;-44
2022/03/01 03:41:47;;;;;;;12.30;9.05;;;1.10;94.90;;;;;;5091285;28;20259;-45
2022/03/01 03:44:13;;;;;;;12.25;9.13;;;1.30;95.20;;;;;;5092663;28;20499;-45
2022/03/01 03:46:41;;;;;;;13.35;9.95;;;1.20;95.10;;;;;;5092917;28;20199;-45
2022/03/01 03:49:08;;;;;;;14.90;9.68;;;1.10;95.10;;;;;;5091061;28;20205;-44
2022/03/01 03:51:35;;;;;;;16.77;10.05;;;1.10;95.00;;;;;;5092473;28;20223;-45
2022/03/01 03:54:01;;;;;;;16.90;10.25;;;1.20;95.10;;;;;;5092738;28;20187;-44
2022/03/01 03:56:29;;;;;;;13.45;8.60;;;;;;;;;;5091196;28;20204;-45
2022/03/01 03:58:57;;;;;;;16.55;9.57;;;;;;;;;;5092232;28;20201;-44
2022/03/01 04:01:24;;;;;;;14.98;9.38;;;1.20;95.00;;;;;;5092390;28;20235;-45
2022/03/01 04:03:53;;;;;;;11.98;8.73;;;0.90;95.00;;;;;;5092561;28;20265;-45
2022/03/01 04:06:19;;;;;;;16.48;11.07;;;0.90;94.90;;;;;;5092326;28;20201;-45
2022/03/01 04:08:46;;;;;;;13.63;9.38;;;1.00;94.90;;;;;;5092109;28;20680;-44
2022/03/01 04:11:13;;;;;;;12.77;8.77;;;;;;;;;;5092449;28;20758;-44
2022/03/01 04:13:40;;;;;;;15.27;9.15;;;;;;;;;;5091172;28;20204;-45
2022/03/01 04:16:07;;;;;;;14.02;9.15;;;1.00;94.90;;;;;;5092925;28;20571;-45
2022/03/01 04:18:34;;;;;;;13.25;9.32;;;;;;;;;;5092386;28;20198;-45
2022/03/01 04:21:04;;;;;;;13.63;9.18;;;0.80;94.70;;;;;;5093198;28;20243;-45
2022/03/01 04:23:32;;;;;;;14.70;8.98;;;1.00;94.90;;;;;;5092953;28;20344;-45
2022/03/01 04:25:59;;;;;;;12.85;10.00;;;0.80;94.70;;;;;;5093014;28;20208;-44
2022/03/01 04:28:25;;;;;;;14.82;8.80;;;0.90;94.90;;;;;;5092658;28;20211;-44
2022/03/01 04:30:52;;;;;;;17.45;9.40;;;1.00;94.80;;;;;;5092794;28;20212;-44
2022/03/01 04:33:19;;;;;;;14.10;9.05;;;;;;;;;;5092902;28;20202;-44
2022/03/01 04:35:46;;;;;;;16.15;9.95;;;0.80;94.60;;;;;;5093137;28;20198;-44
2022/03/01 04:38:14;;;;;;;13.68;8.32;;;0.90;94.90;;;;;;5092827;28;20195;-46
2022/03/01 04:40:41;;;;;;;16.27;9.25;;;0.70;94.60;;;;;;5095788;28;20703;-44
2022/03/01 04:43:07;;;;;;;16.15;9.82;;;0.90;94.80;;;;;;5094413;28;20715;-44
2022/03/01 04:45:34;;;;;;;13.02;8.70;;;0.90;94.80;;;;;;5093063;28;20242;-44
2022/03/01 04:48:01;;;;;;;15.15;9.55;;;0.80;94.70;;;;;;5092931;28;20197;-44
2022/03/01 04:50:28;;;;;;;17.00;9.40;;;0.90;94.60;;;;;;5092037;28;20619;-44
2022/03/01 04:52:56;;;;;;;16.15;9.00;;;;;;;;;;5093042;28;20204;-44
2022/03/01 04:55:24;;;;;;;16.75;9.73;;;0.70;94.70;;;;;;5096079;28;20202;-44
2022/03/01 04:57:50;;;;;;;12.10;9.73;;;1.00;94.80;;;;;;5096150;28;20538;-44
2022/03/01 05:00:17;;;;;;;15.90;9.73;;;0.90;94.80;;;;;;5095752;28;20640;-44
2022/03/01 05:02:45;;;;;;;20.13;9.55;;;0.50;94.50;;;;;;5096265;28;20245;-45
2022/03/01 05:05:12;;;;;;;19.35;9.65;;;0.60;94.80;;;;;;5096117;28;20197;-44
2022/03/01 05:07:40;;;;;;;16.48;9.52;;;;;;;;;;5096192;28;20203;-45
2022/03/01 05:10:08;;;;;;;13.35;8.18;;;0.80;94.80;;;;;;5095670;28;20299;-44
2022/03/01 05:12:43;;;;;;;14.82;9.10;;;0.70;94.80;;;;;;5095980;28;20228;-44
2022/03/01 05:15:10;;;;;;;13.95;9.15;;;0.50;94.60;;;;;;5096286;28;20659;-44
2022/03/01 05:17:37;;;;;;;14.52;8.73;;;0.60;94.60;;;;;;5096375;28;20685;-45
2022/03/01 05:20:04;;;;;;;16.48;9.35;;;0.80;94.60;;;;;;5095262;28;20215;-44
2022/03/01 05:22:31;;;;;;;15.40;10.10;;;0.70;94.70;;;;;;5096207;28;20204;-45
2022/03/01 05:24:58;;;;;;;13.50;8.77;;;0.80;94.70;;;;;;5095925;28;20304;-46
2022/03/01 05:27:25;;;;;;;11.70;8.32;;;0.90;94.50;;;;;;5096310;28;20222;-44
2022/03/01 05:29:53;;;;;;;13.15;8.88;;;0.60;94.40;;;;;;5095718;28;20225;-43
2022/03/01 05:32:19;;;;;;;13.00;8.45;;;0.80;94.50;;;;;;5096228;28;20198;-44
2022/03/01 05:34:46;;;;;;;18.08;9.73;;;0.70;94.50;;;;;;5096770;28;20193;-44
2022/03/01 05:37:12;;;;;;;18.00;9.60;;;0.60;94.60;;;;;;5096481;28;20247;-44
2022/03/01 05:39:39;;;;;;;18.25;9.55;;;0.60;94.40;;;;;;5096135;28;20199;-44
2022/03/01 05:42:06;;;;;;;18.27;9.63;;;0.70;94.60;;;;;;5095716;28;20224;-46
2022/03/01 05:44:33;;;;;;;12.18;8.85;;;0.90;94.50;;;;;;5096639;28;20202;-44
2022/03/01 05:47:01;;;;;;;12.98;8.60;;;0.60;94.50;;;;;;5095909;28;20205;-46
2022/03/01 05:49:27;;;;;;;13.48;9.68;;;0.80;94.50;;;;;;5095285;28;20202;-44
2022/03/01 05:51:54;;;;;;;16.75;9.57;;;0.60;94.50;;;;;;5095447;28;20192;-44
2022/03/01 05:54:21;;;;;;;16.77;10.77;;;;;;;;;;5094044;28;20203;-46
2022/03/01 05:56:47;;;;;;;15.40;9.68;;;0.90;94.60;;;;;;5095343;28;20209;-44
2022/03/01 05:59:14;;;;;;;15.45;10.70;;;;;;;;;;5094244;28;20199;-44
2022/03/01 06:01:41;;;;;;;13.27;9.38;;;0.80;94.50;;;;;;5094733;28;20226;-44
2022/03/01 06:04:09;;;;;;;15.70;10.77;;;0.60;94.30;;;;;;5093710;28;20301;-44
2022/03/01 06:06:36;;;;;;;17.85;9.90;;;;;;;;;;5094655;28;20201;-45
2022/03/01 06:09:03;;;;;;;15.55;9.95;;;0.60;94.40;;;;;;5092882;28;20209;-44
2022/03/01 06:11:30;;;;;;;16.80;9.10;;;;;;;;;;5094409;28;20213;-44
2022/03/01 06:13:57;;;;;;;15.80;9.73;;;;;;;;;;5095324;28;20296;-44
2022/03/01 06:16:24;;;;;;;15.18;9.40;;;0.80;94.40;;;;;;5094344;28;20274;-45
2022/03/01 06:18:51;;;;;;;17.58;11.15;;;;;;;;;;5093810;28;20201;-45
2022/03/01 06:21:19;;;;;;;19.63;10.48;;;0.70;94.30;;;;;;5094229;28;20221;-47
2022/03/01 06:23:46;;;;;;;14.27;9.10;;;0.70;94.40;;;;;;5094504;28;20280;-44
2022/03/01 06:26:13;;;;;;;17.02;9.27;;;0.80;94.30;;;;;;5094429;28;20645;-45
2022/03/01 06:28:39;;;;;;;20.50;12.10;;;1.00;94.40;;;;;;5094042;28;20643;-45
2022/03/01 06:31:06;;;;;;;15.13;10.52;;;1.00;94.40;;;;;;5094016;28;20353;-48
2022/03/01 06:33:33;;;;;;;17.80;10.20;;;;;;;;;;5094003;28;20207;-46
2022/03/01 06:36:00;;;;;;;12.65;8.88;;;;;;;;;;5094078;28;20198;-46
2022/03/01 06:38:28;;;;;;;14.05;9.70;;;1.20;94.30;;;;;;5094250;28;20202;-46
2022/03/01 06:40:56;;;;;;;18.67;10.40;;;;;;;;;;5095800;28;20218;-45
2022/03/01 06:43:24;;;;;;;24.10;10.60;;;;;;;;;;5094528;28;20241;-45
2022/03/01 06:45:51;;;;;;;17.88;10.30;;;;;;;;;;5094509;28;20233;-47
2022/03/01 06:48:18;;;;;;;18.45;10.10;;;1.20;93.80;;;;;;5093710;28;20207;-46
2022/03/01 06:50:45;;;;;;;16.90;11.00;;;1.10;93.60;;;;;;5092104;28;20233;-45
2022/03/01 06:53:13;;;;;;;15.57;10.20;;;;;;;;;;5094043;28;20645;-46
2022/03/01 06:55:42;;;;;;;17.17;10.38;;;1.30;93.70;;;;;;5093742;28;20202;-46
2022/03/01 06:58:09;;;;;;;17.58;10.43;;;1.20;93.40;;;;;;5093443;28;20284;-45
2022/03/01 07:00:36;;;;;;;17.13;10.32;;;1.20;93.30;;;;;;5092837;28;20231;-45
2022/03/01 07:03:02;;;;;;;16.90;10.65;;;1.30;93.60;;;;;;5093413;28;20209;-46
2022/03/01 07:05:29;;;;;;;14.48;10.15;;;0.80;93.70;;;;;;5093316;28;20216;-47
2022/03/01 07:07:55;;;;;;;15.98;9.80;;;1.10;93.50;;;;;;5093180;28;20198;-46
2022/03/01 07:10:22;;;;;;;17.42;10.32;;;1.40;93.40;;;;;;5093471;28;20222;-46
2022/03/01 07:12:50;;;;;;;15.35;9.80;;;1.50;93.60;;;;;;5093436;28;20197;-46
2022/03/01 07:15:18;;;;;;;17.60;10.88;;;1.50;93.30;;;;;;5093492;28;20199;-45
2022/03/01 07:17:45;;;;;;;16.50;10.30;;;;;;;;;;5093690;28;20191;-45
2022/03/01 07:20:12;;;;;;;19.65;9.93;;;;;;;;;;5093562;28;20218;-46
2022/03/01 07:22:40;;;;;;;15.43;10.63;;;;;;;;;;5093251;28;20230;-46
2022/03/01 07:25:07;;;;;;;16.02;9.50;;;;;;;;;;5093365;28;20202;-46
2022/03/01 07:27:35;;;;;;;18.70;10.48;;;;;;;;;;5093520;28;20285;-46
2022/03/01 07:30:05;;;;;;;16.88;10.02;;;;;;;;;;5092619;28;20765;-46
2022/03/01 07:32:31;;;;;;;13.75;9.15;;;1.60;92.40;;;;;;5093380;28;20197;-46
2022/03/01 07:34:58;;;;;;;22.88;10.50;;;1.80;92.60;;;;;;5093797;28;20206;-46
2022/03/01 07:37:25;;;;;;;15.32;10.68;;;1.60;92.30;;;;;;5093391;28;20228;-44
2022/03/01 07:39:55;;;;;;;19.98;11.52;;;;;;;;;;5093689;28;20556;-47
2022/03/01 07:42:22;;;;;;;15.88;9.13;;;1.60;92.20;;;;;;5093391;28;20657;-46
2022/03/01 07:44:48;;;;;;;18.70;10.60;;;1.60;92.20;;;;;;5092806;28;20195;-46
2022/03/01 07:47:16;;;;;;;14.60;9.65;;;1.90;92.40;;;;;;5092996;28;20201;-45
2022/03/01 07:49:43;;;;;;;16.05;9.48;;;1.90;92.00;;;;;;5092742;28;20670;-46
2022/03/01 07:52:10;;;;;;;21.83;10.32;;;1.80;92.10;;;;;;5093385;28;20695;-46
2022/03/01 07:54:36;;;;;;;13.00;8.95;;;2.10;92.10;;;;;;5092929;28;20201;-45
2022/03/01 07:57:03;;;;;;;16.30;9.85;;;2.00;92.00;;;;;;5091163;28;20221;-46
2022/03/01 07:59:30;;;;;;;15.00;9.30;;;2.10;91.80;;;;;;5092210;28;20289;-46
2022/03/01 08:01:57;;;;;;;17.52;9.98;;;2.00;91.70;;;;;;5092860;28;20226;-45
2022/03/01 08:04:25;;;;;;;18.00;10.25;;;2.20;91.70;;;;;;5092795;28;20206;-44
2022/03/01 08:06:51;;;;;;;14.18;8.90;;;2.10;91.40;;;;;;5092827;28;20202;-45
2022/03/01 08:09:18;;;;;;;18.02;10.57;;;;;;;;;;5091992;28;20224;-46
2022/03/01 08:11:45;;;;;;;14.40;9.20;;;2.00;91.30;;;;;;5092385;28;20555;-46
2022/03/01 08:14:11;;;;;;;18.27;9.80;;;2.20;91.40;;;;;;5092509;28;20199;-46
2022/03/01 08:16:38;;;;;;;13.18;8.48;;;2.40;91.50;;;;;;5092306;28;20202;-46
2022/03/01 08:19:05;;;;;;;14.48;9.38;;;;;;;;;;5091791;28;20195;-46
2022/03/01 08:21:33;;;;;;;12.93;7.90;;;2.40;91.10;;;;;;5092199;28;20695;-46
2022/03/01 08:24:00;;;;;;;13.73;8.77;;;2.60;90.60;;;;;;5092351;28;20221;-47
2022/03/01 08:26:27;;;;;;;15.20;9.20;;;;;;;;;;5091829;28;20190;-46
2022/03/01 08:28:54;;;;;;;16.25;9.10;;;2.40;90.80;;;;;;5091453;28;20265;-46
2022/03/01 08:31:21;;;;;;;15.52;9.80;;;;;;;;;;5091804;28;20770;-46
2022/03/01 08:33:48;;;;;;;18.42;9.30;;;2.60;90.90;;;;;;5091755;28;20202;-45
2022/03/01 08:36:15;;;;;;;14.27;9.10;;;2.90;90.70;;;;;;5092580;28;20217;-45
2022/03/01 08:38:43;;;;;;;15.07;10.65;;;2.70;90.40;;;;;;5091179;28;20206;-46
2022/03/01 08:41:10;;;;;;;15.40;8.70;;;;;;;;;;5091531;28;20588;-47
2022/03/01 08:43:36;;;;;;;12.32;9.20;;;3.00;90.30;;;;;;5093231;28;20209;-46
2022/03/01 08:46:03;;;;;;;12.73;8.68;;;2.90;90.00;;;;;;5091948;28;20563;-47
2022/03/01 08:48:30;;;;;;;17.67;9.07;;;3.20;90.10;;;;;;5090946;28;20214;-46
2022/03/01 08:50:56;;;;;;;14.55;9.07;;;3.20;89.90;;;;;;5091742;28;20344;-46
2022/03/01 08:53:24;;;;;;;14.95;9.98;;;3.30;90.00;;;;;;5090202;28;20206;-45
2022/03/01 08:55:53;;;;;;;13.25;8.30;;;3.30;90.20;;;;;;5091295;28;20693;-45
2022/03/01 08:58:20;;;;;;;12.85;7.80;;;3.20;89.10;;;;;;5099099;28;20256;-45
2022/03/01 09:00:47;;;;;;;14.55;9.20;;;3.40;89.40;;;;;;5106898;28;20291;-44
2022/03/01 09:03:14;;;;;;;15.20;8.27;;;3.20;88.10;;;;;;5109839;28;20221;-45
2022/03/01 09:05:41;;;;;;;11.00;8.45;;;3.50;88.60;;;;;;5091806;28;20195;-45
2022/03/01 09:08:09;;;;;;;9.73;7.30;;;3.20;88.20;;;;;;5091881;28;20199;-45
2022/03/01 09:10:36;;;;;;;15.98;9.18;;;3.30;87.20;;;;;;5091227;28;20230;-45
2022/03/01 09:13:04;;;;;;;12.80;8.10;;;3.50;86.30;;;;;;5091693;28;20551;-46
2022/03/01 09:15:32;;;;;;;10.68;7.50;;;3.50;87.30;;;;;;5091395;28;20629;-46
2022/03/01 09:18:00;;;;;;;11.60;8.55;;;3.60;86.80;;;;;;5091576;28;20195;-46
2022/03/01 09:20:27;;;;;;;14.25;9.20;;;3.60;86.30;;;;;;5089544;28;20768;-45
2022/03/01 09:22:55;;;;;;;11.77;7.57;;;3.60;86.60;;;;;;5091255;28;20219;-46
2022/03/01 09:25:22;;;;;;;11.73;7.63;;;3.50;86.00;;;;;;5091677;28;20195;-45
2022/03/01 09:27:49;;;;;;;14.18;7.70;;;3.70;85.90;;;;;;5091801;28;20191;-46
2022/03/01 09:30:18;;;;;;;13.95;8.70;;;3.60;85.50;;;;;;5103525;28;20220;-46
2022/03/01 09:32:45;;;;;;;12.65;8.52;;;3.90;86.20;;;;;;5111569;28;20198;-46
2022/03/01 09:35:13;;;;;;;12.02;8.68;;;3.60;85.60;;;;;;5112204;28;20239;-47
2022/03/01 09:37:41;;;;;;;15.02;9.93;;;3.80;85.50;;;;;;5111683;28;20202;-44
2022/03/01 09:40:11;;;;;;;12.93;8.82;;;3.90;86.80;;;;;;5107743;28;20583;-45
2022/03/01 09:42:39;;;;;;;14.85;9.15;;;3.90;86.10;;;;;;5095055;28;20218;-47
2022/03/01 09:45:07;;;;;;;11.23;7.97;;;3.90;85.50;;;;;;5094730;28;20218;-46
2022/03/01 09:47:35;;;;;;;11.00;8.13;;;3.90;86.10;;;;;;5094715;28;20193;-46
2022/03/01 09:50:02;;;;;;;14.27;7.82;;;3.90;85.90;;;;;;5094235;28;20210;-45
2022/03/01 09:52:29;;;;;;;14.73;9.25;;;3.90;85.50;;;;;;5094876;28;20202;-46
2022/03/01 09:54:56;;;;;;;12.63;8.85;;;;;;;;;;5094593;28;20201;-45
2022/03/01 09:57:23;;;;;;;11.70;8.10;;;4.00;85.10;;;;;;5094528;28;20571;-44
2022/03/01 09:59:49;;;;;;;9.55;7.82;;;4.00;85.40;;;;;;5094206;28;20222;-46
2022/03/01 10:02:17;;;;;;;11.73;8.40;;;4.30;84.10;;;;;;5094825;28;20297;-47
2022/03/01 10:04:55;;;;;;;15.55;11.52;;;4.00;84.40;;;;;;5093411;28;20205;-46
2022/03/01 10:07:22;;;;;;;12.95;8.48;;;4.30;85.20;;;;;;5094316;28;20201;-45
2022/03/01 10:09:49;;;;;;;15.70;8.88;;;4.30;85.00;;;;;;5093940;28;20547;-47
2022/03/01 10:12:23;;;;;;;12.40;9.27;;;4.80;85.00;;;;;;5093027;28;20206;-45
2022/03/01 10:14:58;;;;;;;15.57;10.00;;;4.50;83.90;;;;;;5094206;28;20233;-45
2022/03/01 10:17:24;;;;;;;16.92;8.95;;;4.90;85.40;;;;;;5094228;28;20190;-46
2022/03/01 10:20:03;;;;;;;14.20;9.80;;;4.40;84.40;;;;;;5093990;28;20214;-47
2022/03/01 10:22:30;;;;;;;14.27;9.45;;;4.00;83.60;;;;;;5094061;28;20226;-46
2022/03/01 10:25:04;;;;;;;13.32;7.75;;;4.50;84.30;;;;;;5093925;28;20194;-46
2022/03/01 10:27:31;;;;;;;13.60;8.60;;;4.30;83.60;;;;;;5094046;28;20689;-46
2022/03/01 10:29:58;;;;;;;12.02;8.68;;;4.40;83.30;;;;;;5093840;28;20226;-46
2022/03/01 10:32:25;;;;;;;12.93;8.20;;;4.80;82.60;;;;;;5093891;28;20195;-45
2022/03/01 10:34:59;;;;;;;10.75;8.10;;;4.60;83.00;;;;;;5093628;28;20421;-46
2022/03/01 10:37:29;;;;;;;14.35;7.93;;;4.90;82.80;;;;;;5093686;28;20193;-45
2022/03/01 10:40:10;;;;;;;13.70;7.20;;;4.80;81.60;;;;;;5097922;28;20252;-46
2022/03/01 10:42:38;;;;;;;11.55;8.18;;;4.80;81.50;;;;;;5109226;28;20222;-46
2022/03/01 10:45:05;;;;;;;18.50;8.45;;;4.60;81.80;;;;;;5093655;28;20299;-45
2022/03/01 10:47:33;;;;;;;12.82;8.18;;;4.90;81.30;;;;;;5095389;28;20671;-47
2022/03/01 10:50:02;;;;;;;12.65;8.00;;;5.00;80.60;;;;;;5093233;28;20306;-45
2022/03/01 10:52:36;;;;;;;12.32;8.70;;;4.70;80.70;;;;;;5092952;28;20191;-46
2022/03/01 10:55:04;;;;;;;13.82;8.00;;;5.10;80.50;;;;;;5093590;28;20205;-46
2022/03/01 10:57:31;;;;;;;12.65;7.57;;;5.00;80.90;;;;;;5093642;28;20298;-47
2022/03/01 10:59:58;;;;;;;11.18;7.55;;;4.90;80.20;;;;;;5093204;28;20639;-48
2022/03/01 11:02:26;;;;;;;13.77;9.77;;;5.00;79.20;;;;;;5093105;28;20211;-47
2022/03/01 11:04:53;;;;;;;11.00;8.18;;;5.10;80.30;;;;;;5109214;28;20582;-46
2022/03/01 11:07:21;;;;;;;11.75;8.00;;;5.10;78.00;;;;;;5113587;28;20210;-46
2022/03/01 11:09:51;;;;;;;12.43;8.23;;;5.20;79.10;;;;;;5113275;28;20206;-46
2022/03/01 11:12:21;;;;;;;10.50;6.80;;;5.30;79.00;;;;;;5114302;28;20196;-46
2022/03/01 11:15:02;;;;;;;11.52;7.72;;;5.30;76.70;;;;;;5114537;28;20201;-44
2022/03/01 11:17:41;;;;;;;11.23;7.50;;;5.20;77.50;;;;;;5114837;28;20182;-46
2022/03/01 11:20:11;;;;;;;12.07;8.13;;;5.20;77.20;;;;;;5113782;28;20248;-45
2022/03/01 11:22:44;;;;;;;10.07;7.23;;;5.30;76.00;;;;;;5113862;28;20304;-47
2022/03/01 11:25:18;;;;;;;11.73;7.45;;;5.30;76.90;;;;;;5113752;28;20444;-45
2022/03/01 11:27:47;;;;;;;16.95;8.07;;;5.40;75.70;;;;;;5113330;28;20198;-45
2022/03/01 11:30:16;;;;;;;10.98;7.60;;;5.50;74.90;;;;;;5111839;28;20217;-46
2022/03/01 11:32:45;;;;;;;11.83;7.53;;;5.60;73.50;;;;;;5113280;28;20198;-46
2022/03/01 11:35:23;;;;;;;11.07;7.78;;;5.40;73.50;;;;;;5099523;28;21247;-46
2022/03/01 11:38:00;;;;;;;10.73;7.60;;;5.50;73.50;;;;;;5110810;28;20244;-45
2022/03/01 11:40:31;;;;;;;10.27;7.70;;;5.40;73.20;;;;;;5091767;28;20302;-47
2022/03/01 11:43:08;;;;;;;13.57;7.85;;;5.50;74.10;;;;;;5101525;28;20221;-47
2022/03/01 11:45:36;;;;;;;9.52;7.32;;;6.00;73.70;;;;;;5112934;28;20197;-46
2022/03/01 11:48:04;;;;;;;11.20;7.60;;;5.60;73.40;;;;;;5112789;28;20202;-46
2022/03/01 11:50:32;;;;;;;14.20;7.00;;;5.90;73.30;;;;;;5111947;28;20474;-45
2022/03/01 11:53:03;;;;;;;9.10;7.30;;;5.60;70.20;;;;;;5091014;28;20195;-46
2022/03/01 11:55:35;;;;;;;13.20;7.83;;;5.70;71.60;;;;;;5091030;28;20424;-47
2022/03/01 11:58:02;;;;;;;7.73;6.43;;;5.80;70.30;;;;;;5092084;28;20861;-48
2022/03/01 12:00:30;;;;;;;7.60;5.47;;;5.90;69.70;;;;;;5092126;28;20464;-46
2022/03/01 12:03:00;;;;;;;8.45;6.38;;;6.10;68.80;;;;;;5090941;28;20473;-45
2022/03/01 12:05:28;;;;;;;9.07;6.00;;;6.00;68.70;;;;;;5092693;28;20213;-46
2022/03/01 12:07:55;;;;;;;8.80;6.20;;;6.10;66.90;;;;;;5095421;28;20485;-46
2022/03/01 12:10:23;;;;;;;10.98;6.85;;;6.10;67.00;;;;;;5112028;28;20447;-46
2022/03/01 12:12:54;;;;;;;7.80;5.53;;;6.00;65.00;;;;;;5100632;28;20194;-46
2022/03/01 12:15:29;;;;;;;8.47;6.80;;;6.10;65.90;;;;;;5099771;28;20419;-46
2022/03/01 12:17:57;;;;;;;9.53;6.80;;;6.00;65.60;;;;;;5112359;28;20899;-47
2022/03/01 12:20:24;;;;;;;12.33;7.20;;;;;;;;;;5111747;28;20427;-46
2022/03/01 12:22:55;;;;;;;8.80;6.20;;;6.40;64.10;;;;;;5112474;28;20447;-46
2022/03/01 12:25:23;;;;;;;7.77;6.10;;;;;;;;;;5112215;28;20419;-47
2022/03/01 12:27:52;;;;;;;10.13;5.80;;;6.40;64.80;;;;;;5111690;28;20412;-46
2022/03/01 12:30:20;;;;;;;8.10;5.97;;;6.20;65.40;;;;;;5111382;28;20456;-45
2022/03/01 12:32:52;;;;;;;9.30;6.40;;;6.40;63.90;;;;;;5111835;28;20469;-45
2022/03/01 12:35:19;;;;;;;7.07;5.37;;;6.60;64.60;;;;;;5101868;28;20420;-47
2022/03/01 12:37:45;;;;;;;10.30;5.80;;;6.30;62.30;;;;;;5092095;28;20472;-46
2022/03/01 12:40:13;;;;;;;6.97;5.23;;;6.50;63.40;;;;;;5098154;28;20976;-46
2022/03/01 12:42:40;;;;;;;10.23;5.80;;;6.40;62.20;;;;;;5103094;28;20456;-46
2022/03/01 12:45:09;;;;;;;9.50;6.53;;;6.80;63.50;;;;;;5092285;28;20408;-46
2022/03/01 12:47:39;;;;;;;6.50;5.47;;;6.50;61.40;;;;;;5092081;28;20440;-47
2022/03/01 12:50:17;;;;;;;9.90;5.97;;;6.60;60.80;;;;;;5091910;28;20453;-46
2022/03/01 12:52:53;;;;;;;8.90;5.60;;;6.90;61.70;;;;;;5098437;28;20436;-45
2022/03/01 12:55:20;;;;;;;6.60;5.90;;;6.50;60.80;;;;;;5095217;28;20471;-46
2022/03/01 12:57:47;;;;;;;7.60;5.07;;;7.20;61.90;;;;;;5111437;28;20451;-46
2022/03/01 13:00:16;;;;;;;10.93;7.07;;;6.80;62.20;;;;;;5107752;28;20475;-47
2022/03/01 13:02:51;;;;;;;9.10;6.17;;;6.60;61.40;;;;;;5109994;28;20440;-45